Aviation Digital Data Service (ADDS)

Output produced by METARs form (1240 UTC 22 February 2018)
found at http://www.aviationweather.gov/adds/metars/
 
LZKZ 221230Z 36023KT CAVOK 01/M06 Q1017 NOSIG
TAF LZKZ 221100Z 2212/2312 01022KT 9999 SCT025 BKN080 
     TEMPO 2212/2216 01025G35KT 
     TEMPO 2217/2310 7000 -SN SCT020 OVC040
       
LZIB 221230Z 05005KT 9999 BKN042 03/M05 Q1016 NOSIG
TAF LZIB 221100Z 2212/2312 04010KT 9999 BKN035 OVC090 
     BECMG 2214/2216 03006KT 8000 -SN SCT020 OVC035 
     PROB30 
     TEMPO 2216/2220 2700 SN OVC014 
     BECMG 2309/2311 05010KT 9999 BKN040 BKN100
       
TAF LZMC 221030Z 2212/2221 03010KT 9999 BKN035 
     TEMPO 2217/2221 6000 -SN BKN015 OVC030
       
LZPP 221230Z 36014KT 9999 BKN045 03/M05 Q1016
TAF LZPP 221100Z 2212/2221 01012KT CAVOK 
     TEMPO 2212/2216 01020KT 
     BECMG 2216/2218 9999 SCT035 BKN080 
     TEMPO 2217/2221 01006KT 7000 -SN OVC035
       
LZSL 221230Z 01009KT 9999 BKN050 04/M08 Q1015
TAF LZSL 221100Z 2212/2221 01010KT CAVOK 
     TEMPO 2212/2217 36018KT 
     BECMG 2214/2216 9999 SCT030 OVC070 
     TEMPO 2216/2221 -SN BKN025 OVC040
       
LZTT 221230Z 06011KT 9999 OVC013 M05/M08 Q1016 NOSIG
TAF LZTT 221100Z 2212/2312 05015KT 9999 OVC017 
     TEMPO 2212/2312 7000 -SN BKN014 OVC050 
     TEMPO 2212/2219 DRSN 
     TEMPO 2220/2306 07008KT
       
LZZI 221230Z 06016KT 9999 FEW033 00/M08 Q1017
TAF LZZI 221100Z 2212/2221 06015KT 9999 SCT030 
     TEMPO 2212/2215 04020KT CAVOK 
     BECMG 2215/2217 BKN030 BKN100